Time;durP1;ratioP1;P1;durP2;ratioP2;P2;SDS_P1;SDS_P2;PMS_P1;PMS_P2;Temp;Humidity;BMP_temperature;BMP_pressure;BME280_temperature;BME280_humidity;BME280_pressure;Samples;Min_cycle;Max_cycle;Signal;HPM_P1;HPM_P2
2022/03/17 00:00:47;;;;;;;64.82;35.13;;;;;;;6.20;94.44;100655.38;5091373;28;20073;-76
2022/03/17 00:03:13;;;;;;;63.03;35.85;;;;;;;6.37;94.79;100657.66;5092330;28;20325;-77
2022/03/17 00:05:38;;;;;;;76.43;38.10;;;;;;;6.47;94.47;100658.66;5085433;28;20032;-76
2022/03/17 00:08:04;;;;;;;67.75;34.88;;;;;;;6.28;93.12;100637.28;5085143;28;20039;-77
2022/03/17 00:10:30;;;;;;;63.30;35.35;;;;;;;6.25;93.65;100632.25;5087485;28;20201;-76
2022/03/17 00:12:56;;;;;;;66.10;34.90;;;;;;;6.08;94.63;100636.91;5086414;28;20043;-76
2022/03/17 00:15:21;;;;;;;70.35;36.58;;;;;;;6.22;94.34;100654.31;5087567;28;20036;-76
2022/03/17 00:17:47;;;;;;;69.53;35.63;;;;;;;6.26;94.09;100653.19;5088047;28;20058;-76
2022/03/17 00:20:13;;;;;;;73.93;36.83;;;;;;;6.14;94.36;100643.53;5087757;28;20028;-76
2022/03/17 00:22:39;;;;;;;61.80;33.97;;;;;;;6.08;93.21;100636.91;5087094;28;20023;-76
2022/03/17 00:25:06;;;;;;;61.58;32.70;;;;;;;6.21;92.57;100667.56;5086553;28;20036;-76
2022/03/17 00:27:33;;;;;;;61.35;31.15;;;;;;;6.18;92.15;100668.66;5087910;28;20077;-76
2022/03/17 00:29:59;;;;;;;60.60;31.00;;;;;;;5.93;93.47;100668.72;5089148;28;20047;-76
2022/03/17 00:32:25;;;;;;;61.58;33.15;;;;;;;6.12;93.02;100671.72;5087806;28;20020;-77
2022/03/17 00:37:34;;;;;;;;;;;;;;;6.01;93.11;100664.59;5092324;28;20063;-78
2022/03/17 00:40:00;;;;;;;65.53;33.30;;;;;;;6.09;93.46;100664.06;5091396;28;20145;-76
2022/03/17 00:42:27;;;;;;;64.22;32.75;;;;;;;6.09;92.76;100664.88;5092855;28;20040;-76
2022/03/17 00:44:54;;;;;;;64.65;35.03;;;;;;;5.86;95.35;100676.19;5101185;28;20024;-76
2022/03/17 00:47:20;;;;;;;70.18;37.05;;;;;;;5.90;95.55;100669.78;5087850;28;20024;-76
2022/03/17 00:49:46;;;;;;;70.45;37.47;;;;;;;5.89;95.80;100691.78;5090851;28;20024;-76
2022/03/17 00:52:12;;;;;;;73.75;37.65;;;;;;;5.90;96.15;100690.81;5093670;28;20066;-76
2022/03/17 00:54:41;;;;;;;63.42;33.53;;;;;;;6.00;95.42;100691.00;5088278;28;20032;-76
2022/03/17 00:57:12;;;;;;;61.72;33.13;;;;;;;5.96;96.49;100698.28;5095311;28;20040;-76
2022/03/17 00:59:38;;;;;;;59.47;32.05;;;;;;;5.77;97.33;100684.72;5090471;28;20258;-76
2022/03/17 01:02:04;;;;;;;60.80;33.08;;;;;;;5.74;98.58;100711.22;5090906;28;20038;-76
2022/03/17 01:04:29;;;;;;;71.43;36.83;;;;;;;5.62;100.00;100707.66;5093300;28;20118;-76
2022/03/17 01:06:55;;;;;;;72.00;40.00;;;;;;;5.58;100.00;100710.59;5093443;28;20327;-76
2022/03/17 01:09:20;;;;;;;81.45;42.78;;;;;;;5.44;100.00;100701.06;5088083;28;20036;-76
2022/03/17 01:11:46;;;;;;;83.82;43.30;;;;;;;5.55;100.00;100716.91;5088049;28;20258;-76
2022/03/17 01:14:13;;;;;;;97.43;50.75;;;;;;;5.47;100.00;100719.22;5093299;28;20043;-75
2022/03/17 01:16:40;;;;;;;106.03;52.80;;;;;;;5.35;100.00;100704.31;5092367;28;20085;-76
2022/03/17 01:19:05;;;;;;;101.25;50.92;;;;;;;5.36;100.00;100719.13;5094443;28;20107;-76
2022/03/17 01:21:31;;;;;;;106.85;54.38;;;;;;;5.31;100.00;100711.56;5089379;28;20048;-76
2022/03/17 01:23:56;;;;;;;96.50;51.92;;;;;;;5.18;100.00;100694.94;5089387;28;20028;-76
2022/03/17 01:26:21;;;;;;;103.47;51.70;;;;;;;5.42;100.00;100716.09;5087698;28;20036;-76
2022/03/17 01:28:47;;;;;;;94.82;48.80;;;;;;;5.19;100.00;100683.50;5093290;28;20028;-76
2022/03/17 01:31:13;;;;;;;93.88;49.00;;;;;;;5.19;100.00;100695.78;5095062;28;20040;-76
2022/03/17 01:33:39;;;;;;;94.25;50.28;;;;;;;5.32;100.00;100721.13;5091930;28;20251;-76
2022/03/17 01:36:04;;;;;;;96.22;50.65;;;;;;;5.34;100.00;100705.25;5096049;28;20075;-76
2022/03/17 01:38:30;;;;;;;95.72;49.70;;;;;;;5.34;100.00;100702.63;5087172;28;20048;-76
2022/03/17 01:40:55;;;;;;;97.63;48.08;;;;;;;5.39;100.00;100714.50;5089358;28;20047;-76
2022/03/17 01:43:21;;;;;;;100.85;48.95;;;;;;;5.35;100.00;100715.66;5089162;28;20037;-76
2022/03/17 01:45:46;;;;;;;93.65;47.42;;;;;;;5.08;100.00;100678.13;5096567;28;20040;-76
2022/03/17 01:48:11;;;;;;;82.95;45.85;;;;;;;5.29;100.00;100726.59;5089406;28;20088;-76
2022/03/17 01:50:37;;;;;;;84.35;45.60;;;;;;;5.31;100.00;100724.69;5094610;28;20040;-76
2022/03/17 01:53:03;;;;;;;91.85;44.28;;;;;;;5.26;100.00;100734.69;5089114;28;20376;-76
2022/03/17 01:55:30;;;;;;;87.90;46.42;;;;;;;5.41;100.00;100733.63;5096933;28;20069;-76
2022/03/17 01:57:56;;;;;;;95.53;47.53;;;;;;;5.44;100.00;100735.19;5093981;28;20252;-76
2022/03/17 02:00:22;;;;;;;87.07;48.53;;;;;;;5.48;100.00;100738.47;5091321;28;20040;-76
2022/03/17 02:02:50;;;;;;;88.13;49.10;;;;;;;5.56;100.00;100729.09;5089757;28;20081;-76
2022/03/17 02:05:17;;;;;;;87.65;46.97;;;;;;;5.56;100.00;100728.25;5090070;28;20298;-76
2022/03/17 02:07:49;;;;;;;92.30;49.22;;;;;;;5.56;100.00;100730.91;5092303;28;20059;-76
2022/03/17 02:10:14;;;;;;;94.03;48.45;;;;;;;5.50;100.00;100726.91;5093920;28;20040;-76
2022/03/17 02:15:26;;;;;;;92.07;47.78;;;;;;;5.28;100.00;100732.78;5098787;28;20060;-76
2022/03/17 02:17:52;;;;;;;88.03;47.85;;;;;;;5.37;100.00;100741.81;5092142;28;20032;-76
2022/03/17 02:20:17;;;;;;;96.28;47.88;;;;;;;5.32;100.00;100736.03;5093298;28;20044;-76
2022/03/17 02:22:46;;;;;;;84.90;46.30;;;;;;;5.27;100.00;100741.59;5087857;28;20020;-76
2022/03/17 02:27:57;;;;;;;92.10;47.63;;;;;;;5.37;100.00;100747.06;5090883;28;20037;-76
2022/03/17 02:30:23;;;;;;;97.97;51.20;;;;;;;5.25;100.00;100742.66;5091849;28;20063;-76
2022/03/17 02:32:49;;;;;;;90.10;48.03;;;;;;;5.10;100.00;100744.50;5092962;28;20024;-77
2022/03/17 02:35:23;;;;;;;98.93;48.33;;;;;;;5.10;100.00;100765.50;5087652;28;20349;-76
2022/03/17 02:37:50;;;;;;;99.78;49.30;;;;;;;5.10;100.00;100757.63;5089247;28;20037;-76
2022/03/17 02:40:15;;;;;;;94.32;51.28;;;;;;;5.25;100.00;100777.63;5090978;28;20111;-76
2022/03/17 02:42:41;;;;;;;93.75;48.00;;;;;;;5.29;100.00;100783.53;5092638;28;20043;-75
2022/03/17 02:45:10;;;;;;;97.53;51.67;;;;;;;5.29;100.00;100775.63;5091976;28;20024;-76
2022/03/17 02:47:37;;;;;;;94.47;48.05;;;;;;;5.35;100.00;100785.72;5093483;28;20249;-77
2022/03/17 02:50:04;;;;;;;90.85;48.30;;;;;;;5.24;100.00;100788.25;5129707;27;20020;-76
2022/03/17 02:52:29;;;;;;;92.07;46.97;;;;;;;5.39;100.00;100795.94;5088242;28;20674;-76
2022/03/17 02:54:56;;;;;;;91.95;50.22;;;;;;;5.38;100.00;100802.13;5087114;28;20231;-76
2022/03/17 02:57:21;;;;;;;92.32;52.05;;;;;;;5.65;100.00;100794.16;5085435;28;20040;-76
2022/03/17 02:59:48;;;;;;;88.47;47.83;;;;;;;5.53;100.00;100791.53;5093157;28;20332;-76
2022/03/17 03:02:18;;;;;;;86.45;48.25;;;;;;;5.74;100.00;100809.28;5088015;28;20047;-76
2022/03/17 03:04:43;;;;;;;82.07;45.90;;;;;;;5.73;100.00;100804.16;5090765;28;20097;-76
2022/03/17 03:07:09;;;;;;;88.75;46.38;;;;;;;5.82;100.00;100810.56;5087781;28;20029;-76
2022/03/17 03:09:35;;;;;;;91.00;46.97;;;;;;;6.04;100.00;100795.00;5094677;28;20028;-76
2022/03/17 03:12:01;;;;;;;92.30;49.15;;;;;;;5.85;100.00;100810.34;5091714;28;20037;-76
2022/03/17 03:14:28;;;;;;;85.05;46.67;;;;;;;5.85;100.00;100810.34;5089895;28;20070;-76
2022/03/17 03:16:53;;;;;;;84.35;44.33;;;;;;;5.76;100.00;100801.31;5103456;28;20021;-76
2022/03/17 03:19:19;;;;;;;86.00;46.47;;;;;;;5.90;100.00;100803.84;5089175;28;20032;-76
2022/03/17 03:21:45;;;;;;;85.80;45.95;;;;;;;5.78;100.00;100804.66;5090117;28;20028;-76
2022/03/17 03:24:12;;;;;;;78.68;44.13;;;;;;;5.94;100.00;100807.09;5084934;28;20697;-76
2022/03/17 03:26:40;;;;;;;74.78;41.95;;;;;;;5.95;100.00;100799.13;5087515;28;20027;-76
2022/03/17 03:29:12;;;;;;;72.80;41.65;;;;;;;5.96;100.00;100802.59;5087923;28;20067;-77
2022/03/17 03:31:37;;;;;;;71.60;39.85;;;;;;;6.05;100.00;100799.31;5087511;28;20047;-78
2022/03/17 03:34:03;;;;;;;72.50;38.65;;;;;;;5.95;100.00;100803.53;5086286;28;20032;-78
2022/03/17 03:39:12;;;;;;;75.35;39.33;;;;;;;6.15;100.00;100818.75;5087831;28;20371;-78
2022/03/17 03:41:38;;;;;;;68.95;36.33;;;;;;;6.28;100.00;100829.28;5088628;28;20021;-78
2022/03/17 03:44:04;;;;;;;67.82;37.03;;;;;;;6.56;100.00;100839.53;5086115;28;20085;-78
2022/03/17 03:46:29;;;;;;;64.15;37.08;;;;;;;6.74;100.00;100845.25;5090666;28;20031;-78
2022/03/17 03:48:55;;;;;;;65.25;36.53;;;;;;;6.86;100.00;100827.75;5085161;28;20079;-78
2022/03/17 03:51:20;;;;;;;62.55;35.50;;;;;;;7.13;99.64;100849.41;5091626;28;20040;-78
2022/03/17 03:56:31;;;;;;;60.70;33.90;;;;;;;7.25;96.46;100848.50;5089952;28;20046;-78
2022/03/17 03:58:59;;;;;;;64.57;35.28;;;;;;;7.32;96.14;100857.66;5089549;28;20289;-78
2022/03/17 04:01:25;;;;;;;56.83;32.72;;;;;;;6.99;97.32;100842.53;5088235;28;20044;-78
2022/03/17 04:03:52;;;;;;;62.35;33.20;;;;;;;7.20;97.93;100862.97;5093564;28;20333;-78
2022/03/17 04:06:18;;;;;;;60.30;34.50;;;;;;;7.15;97.82;100858.03;5086316;28;20055;-78
2022/03/17 04:08:43;;;;;;;56.70;33.97;;;;;;;7.23;97.90;100866.22;5103783;28;20024;-78
2022/03/17 04:11:09;;;;;;;58.40;34.33;;;;;;;7.41;95.58;100873.75;5085660;28;20341;-78
2022/03/17 04:13:35;;;;;;;62.83;35.65;;;;;;;7.19;95.93;100871.81;5095579;28;20035;-78
2022/03/17 04:16:00;;;;;;;63.15;35.33;;;;;;;7.10;97.61;100878.63;5090294;28;20086;-77
2022/03/17 04:18:26;;;;;;;70.03;35.42;;;;;;;7.01;97.06;100860.84;5091672;28;20360;-76
2022/03/17 04:20:51;;;;;;;67.20;36.00;;;;;;;7.16;97.61;100883.44;5086433;28;20170;-76
2022/03/17 04:23:17;;;;;;;63.42;34.50;;;;;;;7.11;97.34;100885.56;5091024;28;20035;-76
2022/03/17 04:25:42;;;;;;;63.58;36.10;;;;;;;6.89;98.92;100882.81;5086873;28;20036;-75
2022/03/17 04:28:08;;;;;;;68.88;35.85;;;;;;;6.50;99.55;100863.66;5084613;28;20032;-76
2022/03/17 04:30:36;;;;;;;71.57;39.25;;;;;;;6.47;100.00;100882.28;5093039;28;20066;-76
2022/03/17 04:33:01;;;;;;;68.32;38.17;;;;;;;6.66;100.00;100903.72;5087365;28;20369;-76
2022/03/17 04:35:27;;;;;;;73.10;39.88;;;;;;;6.73;100.00;100904.97;5085874;28;20040;-76
2022/03/17 04:37:52;;;;;;;68.05;37.20;;;;;;;6.78;100.00;100903.78;5091950;28;20020;-76
2022/03/17 04:40:18;;;;;;;73.32;40.03;;;;;;;6.76;100.00;100897.81;5084770;28;20043;-76
2022/03/17 04:42:43;;;;;;;71.93;40.33;;;;;;;6.62;100.00;100888.25;5095387;28;20028;-76
2022/03/17 04:45:09;;;;;;;76.95;40.33;;;;;;;6.67;100.00;100913.28;5084462;28;20218;-76
2022/03/17 04:47:34;;;;;;;75.70;41.03;;;;;;;6.49;100.00;100919.84;5093459;28;20347;-76
2022/03/17 04:50:00;;;;;;;75.95;42.08;;;;;;;6.44;100.00;100915.88;5087272;28;20028;-76
2022/03/17 04:55:10;;;;;;;77.05;42.70;;;;;;;6.68;100.00;100922.03;5086045;28;20040;-75
2022/03/17 04:57:35;;;;;;;78.68;43.00;;;;;;;6.60;100.00;100925.22;5083849;28;20234;-76
2022/03/17 05:00:01;;;;;;;78.68;43.58;;;;;;;6.68;100.00;100920.25;5087910;28;20108;-76
2022/03/17 05:02:26;;;;;;;75.00;40.75;;;;;;;6.72;100.00;100926.13;5091494;28;20044;-76
2022/03/17 05:04:52;;;;;;;70.88;41.22;;;;;;;6.82;99.80;100923.69;5092850;28;20023;-76
2022/03/17 05:07:18;;;;;;;73.03;42.17;;;;;;;6.81;100.00;100938.63;5095739;28;20038;-76
2022/03/17 05:09:44;;;;;;;75.97;42.22;;;;;;;6.88;100.00;100942.53;5086088;28;20060;-76
2022/03/17 05:12:09;;;;;;;78.25;42.33;;;;;;;6.95;100.00;100956.09;5091045;28;20039;-76
2022/03/17 05:14:35;;;;;;;68.90;39.78;;;;;;;7.14;98.11;100943.28;5087173;28;20033;-76
2022/03/17 05:17:00;;;;;;;66.75;40.00;;;;;;;7.12;98.05;100939.06;5086607;28;20063;-76
2022/03/17 05:19:26;;;;;;;71.25;40.83;;;;;;;7.32;97.67;100963.06;5085823;28;20314;-76
2022/03/17 05:21:52;;;;;;;74.22;40.72;;;;;;;7.21;97.23;100965.59;5095871;28;20407;-76
2022/03/17 05:24:18;;;;;;;70.65;39.22;;;;;;;6.93;98.37;100953.56;5089204;28;20036;-76
2022/03/17 05:26:45;;;;;;;75.90;41.35;;;;;;;6.75;99.48;100954.03;5091871;28;20085;-76
2022/03/17 05:29:12;;;;;;;71.18;41.60;;;;;;;6.57;100.00;100935.94;5089110;28;20028;-76
2022/03/17 05:31:37;;;;;;;74.85;42.75;;;;;;;6.51;100.00;100951.31;5088615;28;20503;-76
2022/03/17 05:34:03;;;;;;;78.03;42.28;;;;;;;6.47;100.00;100955.13;5089558;28;20036;-76
2022/03/17 05:36:29;;;;;;;76.38;42.38;;;;;;;6.54;100.00;100978.25;5091086;28;20035;-76
2022/03/17 05:38:54;;;;;;;80.57;42.70;;;;;;;6.54;100.00;100959.84;5090493;28;20195;-76
2022/03/17 05:41:20;;;;;;;81.68;42.53;;;;;;;6.50;100.00;100960.16;5090883;28;20032;-76
2022/03/17 05:43:46;;;;;;;80.43;43.70;;;;;;;6.46;100.00;100971.84;5087190;28;20067;-76
2022/03/17 05:46:11;;;;;;;75.97;41.78;;;;;;;6.49;100.00;100969.00;5091545;28;20318;-76
2022/03/17 05:48:39;;;;;;;80.28;42.95;;;;;;;6.27;100.00;100965.22;5088764;28;20026;-76
2022/03/17 05:51:05;;;;;;;78.70;43.65;;;;;;;6.29;100.00;100980.91;5093794;28;20036;-76
2022/03/17 05:53:31;;;;;;;80.45;44.38;;;;;;;6.28;100.00;100976.59;5091117;28;20073;-76
2022/03/17 05:55:56;;;;;;;85.05;45.28;;;;;;;6.18;100.00;100973.69;5091857;28;20032;-76
2022/03/17 05:58:22;;;;;;;81.50;42.95;;;;;;;6.27;100.00;100995.94;5092483;28;20047;-76
2022/03/17 06:00:47;;;;;;;86.93;44.83;;;;;;;6.24;100.00;100989.09;5092833;28;20249;-76
2022/03/17 06:03:12;;;;;;;88.22;46.30;;;;;;;6.43;100.00;101003.63;5091377;28;20036;-77
2022/03/17 06:05:38;;;;;;;85.55;45.58;;;;;;;6.33;100.00;100982.38;5084515;28;20020;-76
2022/03/17 06:08:04;;;;;;;83.22;43.47;;;;;;;6.45;100.00;101005.22;5090821;28;20028;-76
2022/03/17 06:10:32;;;;;;;83.25;45.50;;;;;;;6.65;100.00;101015.22;5092173;28;20103;-76
2022/03/17 06:13:00;;;;;;;80.65;44.58;;;;;;;6.58;100.00;101024.47;5095979;28;20060;-76
2022/03/17 06:15:25;;;;;;;81.05;43.60;;;;;;;6.58;100.00;101018.38;5096264;28;20036;-76
2022/03/17 06:17:54;;;;;;;70.53;40.45;;;;;;;6.71;100.00;101035.00;5102467;28;20202;-76
2022/03/17 06:20:22;;;;;;;76.15;40.95;;;;;;;6.81;100.00;101043.94;5101281;28;20341;-76
2022/03/17 06:22:50;;;;;;;79.05;42.00;;;;;;;6.85;100.00;101048.06;5100406;28;20023;-76
2022/03/17 06:25:18;;;;;;;73.50;42.33;;;;;;;6.78;100.00;101038.91;5102057;28;20024;-76
2022/03/17 06:27:45;;;;;;;78.35;42.10;;;;;;;6.58;100.00;101042.06;5100415;28;20381;-76
2022/03/17 06:30:21;;;;;;;74.03;42.40;;;;;;;6.67;100.00;101058.06;5099590;28;20048;-76
2022/03/17 06:32:47;;;;;;;77.25;43.28;;;;;;;6.45;100.00;101067.53;5100577;28;20377;-76
2022/03/17 06:35:18;;;;;;;82.68;43.42;;;;;;;6.62;100.00;101073.31;5100474;28;20248;-75
2022/03/17 06:37:49;;;;;;;78.57;40.72;;;;;;;6.68;100.00;101079.97;5099886;28;20031;-75
2022/03/17 06:40:16;;;;;;;77.88;42.97;;;;;;;6.43;100.00;101046.56;5101629;28;20040;-76
2022/03/17 06:42:42;;;;;;;77.57;42.03;;;;;;;6.62;100.00;101075.97;5103789;28;20099;-76
2022/03/17 06:45:09;;;;;;;80.18;44.10;;;;;;;6.53;100.00;101073.94;5098485;28;20286;-75
2022/03/17 06:47:34;;;;;;;82.72;44.58;;;;;;;6.43;100.00;101088.66;5100635;28;20099;-76
2022/03/17 06:50:00;;;;;;;83.63;46.80;;;;;;;6.39;100.00;101098.56;5100845;28;20020;-76
2022/03/17 06:52:25;;;;;;;87.20;49.00;;;;;;;6.38;100.00;101099.50;5100294;28;20313;-76
2022/03/17 06:54:51;;;;;;;94.05;50.35;;;;;;;6.49;100.00;101106.69;5101756;28;20023;-76
2022/03/17 06:57:18;;;;;;;92.60;51.67;;;;;;;6.61;100.00;101107.63;5101046;28;20113;-76
2022/03/17 06:59:44;;;;;;;88.07;48.20;;;;;;;6.46;100.00;101080.56;5099134;28;20026;-76
2022/03/17 07:02:10;;;;;;;82.35;45.20;;;;;;;6.65;100.00;101106.50;5101928;28;20039;-76
2022/03/17 07:04:35;;;;;;;76.85;40.67;;;;;;;6.33;100.00;101111.28;5100029;28;20224;-76
2022/03/17 07:07:01;;;;;;;65.00;36.35;;;;;;;6.31;100.00;101110.53;5098803;28;20032;-76
2022/03/17 07:09:26;;;;;;;64.20;33.67;;;;;;;6.24;100.00;101114.47;5101142;28;20032;-76
2022/03/17 07:11:52;;;;;;;65.15;34.67;;;;;;;6.43;100.00;101117.59;5099437;28;20028;-76
2022/03/17 07:14:18;;;;;;;60.38;33.28;;;;;;;6.22;100.00;101111.09;5099376;28;20034;-76
2022/03/17 07:16:43;;;;;;;73.72;37.80;;;;;;;6.15;100.00;101109.81;5099435;28;20086;-76
2022/03/17 07:19:09;;;;;;;65.38;34.22;;;;;;;6.23;100.00;101120.69;5098627;28;20023;-76
2022/03/17 07:21:35;;;;;;;75.07;39.20;;;;;;;6.44;100.00;101115.81;5099553;28;20064;-76
2022/03/17 07:24:01;;;;;;;64.25;32.95;;;;;;;6.60;100.00;101124.38;5100482;28;20024;-77
2022/03/17 07:26:27;;;;;;;65.82;33.42;;;;;;;6.43;99.77;101129.91;5100547;28;20040;-78
2022/03/17 07:28:54;;;;;;;69.88;36.78;;;;;;;6.28;98.40;101095.78;5100272;28;20028;-78
2022/03/17 07:31:21;;;;;;;67.18;33.90;;;;;;;6.40;96.08;101128.34;5099728;28;20039;-78
2022/03/17 07:33:48;;;;;;;68.45;32.08;;;;;;;6.70;94.51;101143.88;5099937;28;20047;-78
2022/03/17 07:36:14;;;;;;;57.72;30.73;;;;;;;6.38;95.74;101107.41;5099493;28;20073;-78
2022/03/17 07:38:39;;;;;;;58.45;30.08;;;;;;;6.18;94.41;101120.97;5098684;28;20088;-78
2022/03/17 07:41:05;;;;;;;65.47;32.22;;;;;;;6.67;95.37;101159.88;5100563;28;20032;-78
2022/03/17 07:43:30;;;;;;;53.22;27.75;;;;;;;6.77;94.47;101158.31;5099279;28;20032;-76
2022/03/17 07:45:56;;;;;;;54.33;27.90;;;;;;;6.65;93.10;101153.88;5099385;28;20040;-76
2022/03/17 07:48:21;;;;;;;60.17;28.17;;;;;;;6.65;91.99;101156.50;5099901;28;20236;-76
2022/03/17 07:50:47;;;;;;;61.70;28.73;;;;;;;6.70;93.30;101162.28;5097655;28;20256;-76
2022/03/17 07:53:12;;;;;;;55.65;28.63;;;;;;;6.70;90.09;101163.13;5098798;28;20102;-76
2022/03/17 07:55:38;;;;;;;59.33;31.73;;;;;;;6.68;91.68;101159.75;5099767;28;20368;-76
2022/03/17 07:58:04;;;;;;;64.18;33.95;;;;;;;6.77;93.13;101168.84;5099716;28;20032;-76
2022/03/17 08:00:30;;;;;;;53.65;28.27;;;;;;;6.81;88.87;101169.47;5099081;28;20103;-76
2022/03/17 08:02:56;;;;;;;63.67;31.38;;;;;;;6.77;90.90;101171.47;5100373;28;20039;-78
2022/03/17 08:05:21;;;;;;;65.40;30.42;;;;;;;6.44;90.07;101123.72;5099673;28;20031;-78
2022/03/17 08:07:48;;;;;;;63.80;32.03;;;;;;;7.02;90.35;101174.13;5100268;28;20329;-78
2022/03/17 08:10:15;;;;;;;61.55;31.73;;;;;;;6.77;91.24;101174.09;5098740;28;20039;-78
2022/03/17 08:12:41;;;;;;;53.45;28.08;;;;;;;6.80;88.89;101179.16;5099778;28;20073;-78
2022/03/17 08:15:07;;;;;;;60.10;30.50;;;;;;;6.81;89.67;101186.13;5098317;28;20027;-78
2022/03/17 08:17:33;;;;;;;58.53;30.33;;;;;;;6.78;88.38;101167.03;5098710;28;20028;-78
2022/03/17 08:19:59;;;;;;;65.63;32.72;;;;;;;7.00;88.64;101183.94;5099129;28;20107;-78
2022/03/17 08:22:25;;;;;;;61.30;30.77;;;;;;;6.93;88.48;101180.03;5100059;28;20334;-78
2022/03/17 08:24:51;;;;;;;56.13;27.52;;;;;;;7.16;83.89;101186.34;5099684;28;20048;-78
2022/03/17 08:27:17;;;;;;;58.65;30.38;;;;;;;7.41;86.91;101193.44;5099292;28;20051;-77
2022/03/17 08:29:43;;;;;;;55.80;27.65;;;;;;;7.20;85.27;101187.00;5099398;28;20024;-78
2022/03/17 08:32:09;;;;;;;60.22;29.90;;;;;;;7.25;83.41;101191.00;5096979;28;20032;-77
2022/03/17 08:34:35;;;;;;;57.22;28.10;;;;;;;7.11;82.88;101177.09;5099629;28;20040;-78
2022/03/17 08:37:01;;;;;;;60.45;30.23;;;;;;;7.16;87.78;101203.94;5100341;28;20065;-78
2022/03/17 08:39:27;;;;;;;54.13;27.65;;;;;;;6.95;84.54;101175.50;5099688;28;20748;-77
2022/03/17 08:41:53;;;;;;;55.55;26.75;;;;;;;7.01;85.75;101182.97;5099496;28;20043;-75
2022/03/17 08:44:19;;;;;;;54.30;28.45;;;;;;;7.37;84.19;101205.16;5098022;28;20100;-76
2022/03/17 08:49:30;;;;;;;59.45;29.85;;;;;;;7.35;85.44;101202.63;5099368;28;20058;-76
2022/03/17 08:51:57;;;;;;;53.03;26.15;;;;;;;7.25;80.94;101205.97;5099433;28;20040;-77
2022/03/17 08:54:24;;;;;;;57.75;27.77;;;;;;;7.34;83.47;101192.19;5098436;28;20090;-78
2022/03/17 08:56:51;;;;;;;55.60;28.23;;;;;;;7.31;85.55;101177.44;5103210;28;20031;-78
2022/03/17 08:59:17;;;;;;;56.72;28.13;;;;;;;7.47;84.23;101200.91;5102695;28;20028;-77
2022/03/17 09:01:43;;;;;;;60.40;29.80;;;;;;;7.46;84.30;101208.94;5101594;28;20055;-77
2022/03/17 09:04:09;;;;;;;53.35;27.30;;;;;;;7.59;83.77;101207.97;5101775;28;20196;-78
2022/03/17 09:06:38;;;;;;;55.88;29.05;;;;;;;7.52;83.55;101217.25;5103957;28;20038;-78
2022/03/17 09:09:04;;;;;;;59.03;30.67;;;;;;;7.68;86.78;101191.50;5102927;28;20020;-78
2022/03/17 09:11:30;;;;;;;56.78;28.33;;;;;;;7.45;84.23;101187.00;5102038;28;20065;-77
2022/03/17 09:13:58;;;;;;;62.42;30.77;;;;;;;7.55;86.16;101216.19;5102450;28;20024;-78
2022/03/17 09:16:24;;;;;;;60.33;31.38;;;;;;;7.86;87.53;101218.38;5101975;28;20042;-78
2022/03/17 09:18:49;;;;;;;63.08;33.08;;;;;;;7.84;85.89;101209.72;5102436;28;20210;-78
2022/03/17 09:21:17;;;;;;;64.18;32.67;;;;;;;7.81;85.98;101217.00;5103017;28;20028;-78
2022/03/17 09:23:43;;;;;;;60.88;32.38;;;;;;;7.87;84.80;101216.56;5101124;28;20218;-77
2022/03/17 09:26:09;;;;;;;62.65;31.27;;;;;;;7.68;85.46;101224.94;5102487;28;20039;-78
2022/03/17 09:28:35;;;;;;;62.17;31.65;;;;;;;7.63;85.19;101225.25;5102812;28;20385;-78
2022/03/17 09:31:00;;;;;;;60.58;31.35;;;;;;;8.06;83.48;101232.78;5101592;28;20099;-78
2022/03/17 09:33:26;;;;;;;62.55;30.88;;;;;;;7.93;82.64;101230.16;5102497;28;20032;-78
2022/03/17 09:35:53;;;;;;;55.50;29.60;;;;;;;7.65;83.18;101225.16;5102285;28;20087;-78
2022/03/17 09:38:18;;;;;;;65.18;31.88;;;;;;;7.88;84.73;101224.38;5102323;28;20039;-78
2022/03/17 09:40:44;;;;;;;61.70;31.92;;;;;;;7.82;84.02;101224.81;5102406;28;20028;-78
2022/03/17 09:43:19;;;;;;;61.33;31.02;;;;;;;7.85;85.66;101232.50;5102822;28;20024;-78
2022/03/17 09:46:06;;;;;;;61.75;32.42;;;;;;;8.26;83.99;101231.34;5102810;28;20334;-79
2022/03/17 09:48:32;;;;;;;58.22;32.13;;;;;;;8.42;83.53;101223.22;5101194;28;20024;-76
2022/03/17 09:50:59;;;;;;;65.88;33.63;;;;;;;8.25;81.43;101225.22;5101753;28;20330;-76
2022/03/17 09:53:26;;;;;;;58.83;29.27;;;;;;;8.52;81.13;101233.00;5099816;28;20032;-76
2022/03/17 09:55:51;;;;;;;60.03;30.83;;;;;;;8.21;80.99;101215.84;5101411;28;20028;-76
2022/03/17 09:58:18;;;;;;;57.92;30.17;;;;;;;8.37;79.89;101230.63;5102900;28;20093;-75
2022/03/17 10:00:49;;;;;;;60.53;31.23;;;;;;;8.57;80.10;101230.84;5101815;28;20040;-76
2022/03/17 10:03:19;;;;;;;59.95;30.40;;;;;;;8.87;78.89;101221.59;5100594;28;20031;-76
2022/03/17 10:05:46;;;;;;;55.72;29.05;;;;;;;9.13;77.11;101238.97;5102654;28;20032;-75
2022/03/17 10:08:15;;;;;;;59.67;31.30;;;;;;;9.01;78.59;101237.25;5099513;28;20035;-76
2022/03/17 10:10:42;;;;;;;57.10;30.92;;;;;;;9.29;78.48;101236.00;5101857;28;20038;-76
2022/03/17 10:13:13;;;;;;;53.20;28.48;;;;;;;9.37;74.98;101241.56;5101733;28;20073;-76
2022/03/17 10:15:39;;;;;;;59.97;30.70;;;;;;;9.38;77.22;101239.78;5100160;28;20028;-76
2022/03/17 10:18:24;;;;;;;55.75;29.30;;;;;;;9.49;75.73;101238.00;5101013;28;20103;-76
2022/03/17 10:21:09;;;;;;;56.47;29.33;;;;;;;9.49;74.52;101242.44;5096000;28;20028;-76
2022/03/17 10:23:44;;;;;;;54.90;29.73;;;;;;;9.74;74.00;101246.66;5096864;28;20091;-76
2022/03/17 10:26:10;;;;;;;57.53;28.98;;;;;;;9.76;75.57;101242.94;5095608;28;20041;-76
2022/03/17 10:28:37;;;;;;;51.22;28.63;;;;;;;9.89;72.28;101242.81;5094020;28;20279;-76
2022/03/17 10:31:07;;;;;;;53.65;28.88;;;;;;;10.08;72.22;101244.84;5094828;28;20059;-77
2022/03/17 10:33:33;;;;;;;61.75;32.50;;;;;;;9.90;72.55;101247.13;5095513;28;20028;-76
2022/03/17 10:36:21;;;;;;;77.28;46.88;;;;;;;10.00;71.03;101241.94;5093931;28;20103;-76
2022/03/17 10:38:49;;;;;;;52.95;30.17;;;;;;;9.92;72.19;101226.69;5092868;28;20028;-76
2022/03/17 10:41:15;;;;;;;58.78;30.90;;;;;;;10.06;73.16;101234.38;5095295;28;20022;-76
2022/03/17 10:43:42;;;;;;;56.65;30.73;;;;;;;10.18;70.98;101251.91;5092926;28;20213;-76
2022/03/17 10:46:18;;;;;;;53.92;30.08;;;;;;;9.89;73.45;101248.94;5095689;28;20111;-74
2022/03/17 10:48:59;;;;;;;54.55;29.45;;;;;;;10.05;72.14;101259.16;5093241;28;20099;-76
2022/03/17 10:51:31;;;;;;;68.22;33.42;;;;;;;10.17;69.47;101254.69;5100595;28;20039;-76
2022/03/17 10:54:11;;;;;;;119.90;55.17;;;;;;;10.11;69.28;101249.88;5101522;28;20032;-76
2022/03/17 10:56:38;;;;;;;61.90;32.60;;;;;;;10.13;69.07;101258.53;5100681;28;20062;-76
2022/03/17 10:59:05;;;;;;;47.92;26.58;;;;;;;10.09;72.30;101251.81;5100533;28;20083;-75
2022/03/17 11:01:49;;;;;;;53.78;27.17;;;;;;;10.15;73.27;101253.97;5100223;28;20346;-76
2022/03/17 11:04:15;;;;;;;49.85;27.55;;;;;;;9.98;73.10;101255.31;5101776;28;20067;-76
2022/03/17 11:06:40;;;;;;;49.33;27.42;;;;;;;9.84;74.26;101250.25;5099264;28;20040;-76
2022/03/17 11:09:08;;;;;;;46.92;27.63;;;;;;;9.98;73.27;101252.66;5099997;28;20044;-76
2022/03/17 11:11:37;;;;;;;50.22;27.77;;;;;;;9.96;73.13;101227.28;5101457;28;20040;-76
2022/03/17 11:14:04;;;;;;;58.75;29.83;;;;;;;10.13;73.47;101234.72;5098757;28;20032;-76
2022/03/17 11:16:39;;;;;;;48.50;27.90;;;;;;;10.15;73.06;101241.56;5098847;28;20108;-76
2022/03/17 11:19:07;;;;;;;51.97;28.00;;;;;;;10.26;69.91;101247.84;5101266;28;20161;-76
2022/03/17 11:21:33;;;;;;;50.28;27.48;;;;;;;10.22;70.45;101244.59;5099888;28;20095;-76
2022/03/17 11:24:05;;;;;;;47.63;26.02;;;;;;;9.96;71.48;101244.00;5100686;28;20265;-76
2022/03/17 11:26:44;;;;;;;45.60;26.55;;;;;;;9.78;71.99;101233.06;5099793;28;20340;-76
2022/03/17 11:29:17;;;;;;;48.58;27.63;;;;;;;9.84;74.96;101231.75;5100573;28;20118;-76
2022/03/17 11:31:56;;;;;;;48.38;26.80;;;;;;;9.97;72.27;101232.47;5099920;28;20341;-76